Time;durP1;ratioP1;P1;durP2;ratioP2;P2;SDS_P1;SDS_P2;PMS_P1;PMS_P2;Temp;Humidity;BMP_temperature;BMP_pressure;BME280_temperature;BME280_humidity;BME280_pressure;Samples;Min_cycle;Max_cycle;Signal;HPM_P1;HPM_P2
2022/03/05 00:01:01;;;;;;;10.20;7.93;;;;;;;8.38;69.77;101036.94;5029526;27;102376;-55
2022/03/05 00:03:28;;;;;;;8.32;7.32;;;;;;;8.38;70.42;101045.88;5032436;27;101958;-55
2022/03/05 00:05:55;;;;;;;9.20;7.15;;;;;;;8.37;70.17;101044.25;5034118;27;102805;-55
2022/03/05 00:08:24;;;;;;;10.07;7.82;;;;;;;8.38;70.03;101043.19;5032531;28;104004;-55
2022/03/05 00:10:51;;;;;;;10.93;7.70;;;;;;;8.38;70.09;101043.19;5031418;27;102436;-55
2022/03/05 00:13:19;;;;;;;9.93;8.18;;;;;;;8.37;70.01;101041.53;5015408;27;102258;-55
2022/03/05 00:15:46;;;;;;;9.65;7.07;;;;;;;8.37;70.40;101038.84;5013660;28;102161;-55
2022/03/05 00:18:13;;;;;;;8.38;7.50;;;;;;;8.37;69.63;101044.25;5012563;28;103802;-55
2022/03/05 00:20:55;;;;;;;8.68;7.30;;;;;;;8.38;70.28;101043.19;5015490;27;102534;-55
2022/03/05 00:23:21;;;;;;;9.10;7.63;;;;;;;8.38;69.66;101051.31;5031810;27;102239;-55
2022/03/05 00:25:48;;;;;;;9.05;7.25;;;;;;;8.38;69.67;101047.78;5033861;28;102188;-55
2022/03/05 00:28:15;;;;;;;8.45;7.18;;;;;;;8.37;69.94;101046.97;5015283;27;103838;-55
2022/03/05 00:30:43;;;;;;;11.02;7.95;;;;;;;8.37;70.05;101046.97;5011822;28;102351;-55
2022/03/05 00:33:10;;;;;;;9.07;7.55;;;;;;;8.38;70.35;101045.88;5012277;28;101926;-55
2022/03/05 00:35:37;;;;;;;9.00;7.93;;;;;;;8.38;69.72;101040.47;5033308;27;102103;-55
2022/03/05 00:38:04;;;;;;;7.88;7.07;;;;;;;8.38;70.49;101042.34;5030548;27;103981;-55
2022/03/05 00:40:30;;;;;;;9.82;7.85;;;;;;;8.37;69.52;101027.13;5030765;27;101936;-56
2022/03/05 00:42:57;;;;;;;9.95;7.75;;;;;;;8.37;69.83;101036.13;5016136;27;102053;-55
2022/03/05 00:45:24;;;;;;;8.48;7.43;;;;;;;8.37;69.60;101038.00;5033191;27;103108;-56
2022/03/05 00:47:52;;;;;;;9.93;7.38;;;;;;;8.37;70.07;101027.97;5027379;27;103871;-55
2022/03/05 00:50:18;;;;;;;8.68;7.05;;;;;;;8.37;70.01;101019.84;5032350;27;102559;-55
2022/03/05 00:52:45;;;;;;;8.85;7.30;;;;;;;8.38;69.67;101036.94;5032058;27;102014;-55
2022/03/05 00:55:11;;;;;;;8.27;7.30;;;;;;;8.37;69.80;101036.13;5030552;27;102277;-55
2022/03/05 00:57:38;;;;;;;9.10;7.32;;;;;;;8.37;70.48;101032.56;5031196;27;104075;-55
2022/03/05 01:00:07;;;;;;;9.18;7.53;;;;;;;8.37;69.55;101041.53;5032450;27;102289;-55
2022/03/05 01:02:34;;;;;;;9.63;7.63;;;;;;;8.38;69.84;101036.94;5031674;27;102479;-54
2022/03/05 01:05:02;;;;;;;8.05;7.22;;;;;;;8.37;70.25;101036.13;5031974;27;102801;-55
2022/03/05 01:07:30;;;;;;;8.65;7.40;;;;;;;8.37;70.33;101036.13;5031961;27;103896;-55
2022/03/05 01:09:57;;;;;;;9.27;7.43;;;;;;;8.37;70.25;101036.13;5034402;27;102323;-55
2022/03/05 01:12:23;;;;;;;9.27;7.70;;;;;;;8.37;69.81;101030.69;5048210;27;102607;-55
2022/03/05 01:14:50;;;;;;;8.68;7.47;;;;;;;8.37;70.47;101038.84;5056128;27;101998;-55
2022/03/05 01:17:18;;;;;;;8.32;7.28;;;;;;;8.37;69.64;101033.41;5054362;27;103951;-55
2022/03/05 01:19:44;;;;;;;9.02;7.68;;;;;;;8.36;70.36;101034.44;5040183;27;102175;-57
2022/03/05 01:22:13;;;;;;;9.88;8.07;;;;;;;8.36;70.51;101034.44;5017950;27;101990;-55
2022/03/05 01:24:39;;;;;;;8.65;7.50;;;;;;;8.36;69.55;101026.28;5033111;27;102433;-55
2022/03/05 01:27:06;;;;;;;8.80;7.85;;;;;;;8.37;70.23;101038.00;5031854;27;104128;-55
2022/03/05 01:29:32;;;;;;;9.40;7.15;;;;;;;8.37;70.05;101040.69;5031781;27;102047;-55
2022/03/05 01:31:59;;;;;;;8.70;7.53;;;;;;;8.37;69.71;101041.53;5031790;28;102456;-55
2022/03/05 01:34:26;;;;;;;9.07;7.28;;;;;;;8.36;70.26;101045.28;5033735;27;102162;-56
2022/03/05 01:36:52;;;;;;;8.27;7.07;;;;;;;8.37;70.07;101048.84;5020359;27;103937;-55
2022/03/05 01:39:20;;;;;;;8.68;7.55;;;;;;;8.36;70.41;101045.28;5012330;28;102996;-55
2022/03/05 01:41:53;;;;;;;9.52;7.60;;;;;;;8.37;69.81;101052.41;5036146;27;102194;-54
2022/03/05 01:44:20;;;;;;;8.75;7.15;;;;;;;8.37;70.15;101052.41;5031926;27;103031;-55
2022/03/05 01:46:46;;;;;;;8.30;7.50;;;;;;;8.38;69.67;101051.31;5031523;27;103778;-55
2022/03/05 01:49:13;;;;;;;8.77;7.78;;;;;;;8.37;70.19;101044.25;5021833;27;102448;-55
2022/03/05 01:51:41;;;;;;;10.05;7.40;;;;;;;8.36;69.54;101047.97;5014583;27;102262;-55
2022/03/05 01:54:09;;;;;;;9.98;7.70;;;;;;;8.36;69.97;101039.84;5012758;28;102216;-55
2022/03/05 01:56:38;;;;;;;9.38;7.65;;;;;;;8.37;70.13;101052.41;5015253;27;103815;-55
2022/03/05 01:59:05;;;;;;;;;;;;;;;8.37;69.66;101044.25;5032221;27;102289;-55
2022/03/05 02:01:32;;;;;;;9.90;7.95;;;;;;;8.37;69.61;101052.41;5031786;28;101979;-55
2022/03/05 02:04:00;;;;;;;9.93;8.07;;;;;;;8.38;70.46;101053.22;5032627;27;102218;-55
2022/03/05 02:06:26;;;;;;;10.32;7.35;;;;;;;8.37;69.64;101054.25;5042158;27;103976;-55
2022/03/05 02:08:55;;;;;;;8.70;7.80;;;;;;;8.36;69.72;101056.13;5052573;27;102434;-55
2022/03/05 02:11:22;;;;;;;8.27;7.40;;;;;;;8.38;69.97;101058.63;5052460;27;101972;-55
2022/03/05 02:13:50;;;;;;;8.43;7.53;;;;;;;8.37;69.92;101051.53;5036187;27;102688;-55
2022/03/05 02:16:18;;;;;;;9.15;7.60;;;;;;;8.38;69.82;101053.22;5031700;27;104090;-55
2022/03/05 02:18:49;;;;;;;8.65;7.50;;;;;;;8.37;70.42;101055.09;5030943;27;103541;-55
2022/03/05 02:21:17;;;;;;;8.73;7.80;;;;;;;8.37;69.66;101052.41;5025932;27;102663;-55
2022/03/05 02:23:44;;;;;;;8.63;7.47;;;;;;;8.37;70.47;101057.81;5012949;28;102714;-55
2022/03/05 02:26:10;;;;;;;9.25;7.35;;;;;;;8.37;69.98;101057.81;5026851;27;103953;-55
2022/03/05 02:28:37;;;;;;;9.10;7.40;;;;;;;8.37;69.94;101055.09;5032215;28;102009;-55
2022/03/05 02:31:04;;;;;;;8.55;7.63;;;;;;;8.37;70.05;101052.41;5031291;28;102045;-55
2022/03/05 02:33:31;;;;;;;8.73;7.50;;;;;;;8.37;69.60;101046.97;5036334;27;102254;-55
2022/03/05 02:35:57;;;;;;;9.60;7.97;;;;;;;8.38;70.11;101056.75;5023041;27;103990;-56
2022/03/05 02:38:25;;;;;;;8.50;7.25;;;;;;;8.38;70.10;101067.59;5031205;27;102285;-55
2022/03/05 02:40:53;;;;;;;8.35;7.53;;;;;;;8.37;70.32;101060.53;5021750;27;102767;-55
2022/03/05 02:43:21;;;;;;;9.20;7.75;;;;;;;8.37;69.97;101065.09;5019262;27;102457;-55
2022/03/05 02:45:49;;;;;;;9.63;7.75;;;;;;;8.37;69.65;101063.25;5030795;27;104427;-55
2022/03/05 02:48:17;;;;;;;9.00;7.63;;;;;;;8.36;70.52;101064.25;5029804;27;102833;-55
2022/03/05 02:50:45;;;;;;;9.27;8.13;;;;;;;8.36;70.42;101056.13;5022286;27;102181;-55
2022/03/05 02:53:11;;;;;;;9.35;7.65;;;;;;;8.36;70.48;101066.16;5029986;27;102729;-55
2022/03/05 02:55:40;;;;;;;9.40;8.07;;;;;;;8.36;70.41;101066.97;5012660;27;103957;-55
2022/03/05 02:58:06;;;;;;;9.80;7.45;;;;;;;8.37;70.07;101063.25;5027871;27;102015;-55
2022/03/05 03:00:33;;;;;;;8.82;7.93;;;;;;;8.37;69.67;101068.66;5040119;27;101963;-56
2022/03/05 03:03:00;;;;;;;9.35;8.27;;;;;;;8.37;70.28;101067.81;5032074;27;102693;-55
2022/03/05 03:05:26;;;;;;;11.23;8.77;;;;;;;8.38;69.57;101069.47;5033430;27;104095;-55
2022/03/05 03:07:53;;;;;;;8.80;7.85;;;;;;;8.38;69.77;101064.88;5022999;27;102085;-55
2022/03/05 03:10:20;;;;;;;9.23;8.25;;;;;;;8.37;69.89;101074.09;5026226;28;101823;-55
2022/03/05 03:12:48;;;;;;;9.13;7.60;;;;;;;8.38;69.87;101072.19;5031479;27;102154;-56
2022/03/05 03:15:15;;;;;;;9.63;8.63;;;;;;;8.37;70.00;101074.09;5033190;27;103953;-55
2022/03/05 03:17:45;;;;;;;9.40;8.05;;;;;;;8.38;69.87;101072.19;5022181;27;102223;-55
2022/03/05 03:20:31;;;;;;;10.55;8.50;;;;;;;8.38;69.68;101075.72;5026592;27;102508;-55
2022/03/05 03:22:58;;;;;;;9.10;7.60;;;;;;;8.38;70.53;101072.19;5034791;28;102172;-55
2022/03/05 03:25:25;;;;;;;9.32;8.32;;;;;;;8.38;70.21;101075.72;5032892;27;103978;-55
2022/03/05 03:27:53;;;;;;;9.60;8.25;;;;;;;8.38;69.72;101075.72;5030702;27;102546;-55
2022/03/05 03:30:19;;;;;;;9.75;7.70;;;;;;;8.38;70.26;101086.56;5016046;27;102209;-55
2022/03/05 03:32:47;;;;;;;9.18;8.18;;;;;;;8.39;69.75;101085.50;5035788;27;102361;-57
2022/03/05 03:35:15;;;;;;;8.65;7.55;;;;;;;8.37;69.95;101084.94;5032725;27;104230;-55
2022/03/05 03:37:42;;;;;;;9.27;8.15;;;;;;;8.38;69.98;101081.16;5034020;27;102201;-55
2022/03/05 03:40:11;;;;;;;10.50;9.13;;;;;;;8.39;70.28;101090.09;5033431;27;102071;-55
2022/03/05 03:42:38;;;;;;;9.57;8.23;;;;;;;8.39;69.91;101093.63;5035092;27;102154;-55
2022/03/05 03:45:07;;;;;;;9.32;8.30;;;;;;;8.39;69.65;101087.38;5032788;27;103906;-55
2022/03/05 03:47:34;;;;;;;10.02;8.05;;;;;;;8.39;70.25;101090.09;5034072;28;102422;-55
2022/03/05 03:50:01;;;;;;;9.43;8.43;;;;;;;8.39;69.58;101099.06;5033400;27;101980;-55
2022/03/05 03:52:28;;;;;;;9.60;8.45;;;;;;;8.39;69.75;101099.06;5036286;27;102342;-55
2022/03/05 03:54:55;;;;;;;9.45;8.45;;;;;;;8.39;70.71;101103.66;5026635;27;103884;-55
2022/03/05 03:57:21;;;;;;;10.02;8.48;;;;;;;8.38;69.96;101108.28;5030017;27;102386;-55
2022/03/05 03:59:51;;;;;;;9.65;8.20;;;;;;;8.39;69.94;101117.22;5029171;27;102585;-55
2022/03/05 04:02:20;;;;;;;8.43;7.57;;;;;;;8.37;70.08;101117.47;5032699;27;102209;-55
2022/03/05 04:04:47;;;;;;;9.40;8.32;;;;;;;8.38;69.57;101116.41;5039957;27;103971;-55
2022/03/05 04:10:18;;;;;;;10.10;8.05;;;;;;;8.38;69.57;101113.69;5031622;28;102449;-55
2022/03/05 04:12:46;;;;;;;9.35;8.38;;;;;;;8.38;70.31;101116.41;5034352;27;102210;-55
2022/03/05 04:15:12;;;;;;;10.20;9.10;;;;;;;8.39;70.05;101120.75;5032547;27;103776;-55
2022/03/05 04:17:40;;;;;;;9.82;8.65;;;;;;;8.38;69.79;101119.13;5032644;27;102035;-55
2022/03/05 04:20:23;;;;;;;10.77;8.93;;;;;;;8.38;70.18;101124.53;5027055;27;102149;-55
2022/03/05 04:22:49;;;;;;;10.45;9.35;;;;;;;8.38;69.97;101127.25;5024648;27;102718;-54
2022/03/05 04:25:16;;;;;;;10.00;8.35;;;;;;;8.39;69.67;101130.78;5033613;27;103775;-55
2022/03/05 04:27:43;;;;;;;9.90;8.35;;;;;;;8.37;69.65;101122.91;5033422;27;102165;-55
2022/03/05 04:30:10;;;;;;;11.98;9.23;;;;;;;8.38;69.91;101134.56;5032912;28;102443;-55
2022/03/05 04:32:48;;;;;;;11.50;9.43;;;;;;;8.37;70.24;101131.03;5034011;28;102189;-56
2022/03/05 04:35:16;;;;;;;10.02;8.63;;;;;;;8.38;69.97;101135.38;5032075;27;103938;-55
2022/03/05 04:37:43;;;;;;;10.52;9.07;;;;;;;8.37;69.85;101138.31;5032517;27;102019;-56
2022/03/05 04:40:10;;;;;;;11.05;9.00;;;;;;;8.37;70.52;101139.19;5032954;28;102855;-55
2022/03/05 04:42:37;;;;;;;10.52;9.15;;;;;;;8.38;70.11;101138.09;5033663;27;102717;-55
2022/03/05 04:45:08;;;;;;;11.35;9.55;;;;;;;8.38;70.22;101138.09;5031573;27;104104;-55
2022/03/05 04:47:34;;;;;;;9.95;8.95;;;;;;;8.38;69.83;101143.53;5032636;27;102539;-55
2022/03/05 04:50:03;;;;;;;10.65;8.93;;;;;;;8.38;70.13;101140.00;5032462;27;101906;-55
2022/03/05 04:52:30;;;;;;;10.40;9.27;;;;;;;8.38;70.10;101151.66;5033207;27;102162;-55
2022/03/05 04:54:57;;;;;;;10.43;9.38;;;;;;;8.37;70.30;101150.03;5032063;27;103898;-55
2022/03/05 04:57:24;;;;;;;11.95;9.48;;;;;;;8.38;70.24;101145.41;5032650;27;101980;-55
2022/03/05 04:59:51;;;;;;;10.15;8.68;;;;;;;8.37;69.66;101146.47;5032138;27;101833;-55
2022/03/05 05:02:18;;;;;;;10.13;9.02;;;;;;;8.38;70.40;101151.66;5033467;28;102740;-55
2022/03/05 05:04:44;;;;;;;12.50;9.77;;;;;;;8.38;70.12;101150.84;5031227;27;104105;-55
2022/03/05 05:07:13;;;;;;;10.88;9.20;;;;;;;8.38;69.99;101151.66;5032679;27;101997;-55
2022/03/05 05:09:42;;;;;;;11.70;9.40;;;;;;;8.39;70.34;101156.00;5031883;27;102452;-56
2022/03/05 05:12:10;;;;;;;29.20;10.75;;;;;;;8.39;69.95;101157.91;5033328;28;102459;-55
2022/03/05 05:14:36;;;;;;;67.82;11.95;;;;;;;8.40;70.21;101160.38;5031808;27;103507;-55
2022/03/05 05:17:03;;;;;;;10.18;9.15;;;;;;;8.39;69.91;101168.75;5032794;27;101913;-55
2022/03/05 05:19:30;;;;;;;11.18;9.40;;;;;;;8.39;69.89;101168.75;5031735;27;102347;-55
2022/03/05 05:21:58;;;;;;;11.95;9.57;;;;;;;8.38;69.96;101173.34;5033652;27;102619;-55
2022/03/05 05:24:29;;;;;;;11.30;9.90;;;;;;;8.38;70.23;101170.66;5031594;27;104231;-55
2022/03/05 05:26:56;;;;;;;10.90;8.77;;;;;;;8.38;70.27;101177.97;5032021;27;102165;-55
2022/03/05 05:29:24;;;;;;;10.10;8.82;;;;;;;8.38;69.82;101178.78;5032086;27;102461;-55
2022/03/05 05:31:50;;;;;;;10.82;9.00;;;;;;;8.39;70.40;101185.03;5033094;28;102402;-55
2022/03/05 05:34:17;;;;;;;10.55;9.05;;;;;;;8.38;70.40;101178.78;5031386;27;103887;-55
2022/03/05 05:36:45;;;;;;;10.55;9.45;;;;;;;8.38;69.64;101192.34;5032664;28;101991;-55
2022/03/05 05:39:12;;;;;;;11.00;9.77;;;;;;;8.38;70.21;101192.34;5031153;27;102157;-55
2022/03/05 05:41:40;;;;;;;11.60;9.68;;;;;;;8.39;70.15;101191.25;5032992;28;102114;-55
2022/03/05 05:44:09;;;;;;;12.17;9.87;;;;;;;8.38;69.59;101195.06;5031733;27;104095;-55
2022/03/05 05:46:36;;;;;;;9.90;8.90;;;;;;;8.38;69.63;101203.19;5031878;27;102358;-55
2022/03/05 05:49:03;;;;;;;11.20;10.00;;;;;;;8.39;70.05;101209.44;5031893;27;102319;-55
2022/03/05 05:51:32;;;;;;;11.10;9.27;;;;;;;8.38;69.59;101213.22;5031854;27;102047;-55
2022/03/05 05:53:59;;;;;;;13.38;9.93;;;;;;;8.38;69.64;101214.03;5030880;27;104087;-55
2022/03/05 05:56:26;;;;;;;11.35;9.55;;;;;;;8.38;69.70;101216.75;5031158;27;101956;-55
2022/03/05 05:58:54;;;;;;;11.48;9.60;;;;;;;8.38;69.99;101214.03;5038961;27;103313;-56
2022/03/05 06:01:21;;;;;;;11.25;9.48;;;;;;;8.38;70.59;101222.19;5023588;27;102083;-55
2022/03/05 06:03:49;;;;;;;10.90;9.65;;;;;;;8.38;70.56;101224.88;5022202;27;103954;-55
2022/03/05 06:06:16;;;;;;;12.70;10.25;;;;;;;8.39;70.10;101223.81;5017179;27;102589;-55
2022/03/05 06:08:42;;;;;;;13.00;9.40;;;;;;;8.38;70.28;101224.88;5028765;27;102305;-55
2022/03/05 06:11:10;;;;;;;11.77;9.85;;;;;;;8.39;69.92;101226.53;5032838;27;102629;-55
2022/03/05 06:13:36;;;;;;;11.48;10.02;;;;;;;8.39;69.61;101229.25;5027511;27;104167;-55
2022/03/05 06:16:08;;;;;;;12.88;10.07;;;;;;;8.38;69.91;101233.03;5024092;27;102069;-55
2022/03/05 06:18:35;;;;;;;11.35;10.15;;;;;;;8.38;69.67;101227.59;5014150;27;103225;-55
2022/03/05 06:21:02;;;;;;;12.35;9.45;;;;;;;8.38;70.07;101230.31;5013350;27;102141;-55
2022/03/05 06:23:30;;;;;;;11.00;9.82;;;;;;;8.39;69.80;101234.66;5027198;27;103934;-55
2022/03/05 06:25:56;;;;;;;13.23;10.18;;;;;;;8.38;70.08;101232.22;5019861;27;102303;-55
2022/03/05 06:28:23;;;;;;;11.20;9.85;;;;;;;8.39;70.40;101229.25;5027673;27;102540;-56
2022/03/05 06:30:50;;;;;;;12.90;9.30;;;;;;;8.38;69.65;101238.44;5016111;27;103353;-55
2022/03/05 06:33:18;;;;;;;12.00;10.00;;;;;;;8.38;69.67;101233.03;5038625;27;103997;-55
2022/03/05 06:35:45;;;;;;;11.70;10.13;;;;;;;8.38;69.70;101235.75;5024706;27;102091;-55
2022/03/05 06:38:11;;;;;;;12.05;9.98;;;;;;;8.38;70.47;101238.44;5044871;27;103562;-55
2022/03/05 06:40:38;;;;;;;12.60;10.40;;;;;;;8.37;70.14;101236.81;5036565;27;102154;-55
2022/03/05 06:43:05;;;;;;;11.38;9.73;;;;;;;8.39;70.56;101248.22;5042248;27;105458;-55
2022/03/05 06:45:31;;;;;;;11.82;10.63;;;;;;;8.38;69.58;101238.44;5027973;27;102091;-55
2022/03/05 06:47:58;;;;;;;12.00;9.68;;;;;;;8.38;69.46;101243.88;5022476;27;102625;-55
2022/03/05 06:50:26;;;;;;;10.95;9.48;;;;;;;8.38;70.46;101238.44;5033071;28;102215;-55
2022/03/05 06:52:52;;;;;;;11.98;9.90;;;;;;;8.38;70.49;101243.06;5029513;27;103933;-55
2022/03/05 06:55:19;;;;;;;15.07;10.52;;;;;;;8.38;69.97;101238.44;5036245;27;102627;-55
2022/03/05 06:57:45;;;;;;;11.15;9.43;;;;;;;8.39;70.01;101245.50;5035725;27;102699;-55
2022/03/05 07:00:14;;;;;;;13.85;10.25;;;;;;;8.39;69.66;101245.50;5035259;27;102526;-55
2022/03/05 07:02:41;;;;;;;12.77;9.80;;;;;;;8.39;69.83;101250.94;5031830;27;104050;-55
2022/03/05 07:05:09;;;;;;;14.13;10.55;;;;;;;8.38;70.11;101243.88;5032624;27;102035;-55
2022/03/05 07:07:38;;;;;;;12.13;10.05;;;;;;;8.38;70.39;101243.88;5025667;27;102499;-55
2022/03/05 07:10:06;;;;;;;12.32;10.30;;;;;;;8.38;70.05;101243.88;5028419;27;102576;-55
2022/03/05 07:12:53;;;;;;;12.88;11.07;;;;;;;8.38;70.05;101248.47;5027189;27;104756;-55
2022/03/05 07:15:20;;;;;;;13.05;10.63;;;;;;;8.39;69.61;101252.81;5034109;27;102317;-55
2022/03/05 07:17:48;;;;;;;13.20;10.85;;;;;;;8.39;69.42;101250.13;5033259;27;102429;-55
2022/03/05 07:20:15;;;;;;;12.18;10.82;;;;;;;8.39;69.61;101258.25;5055416;27;102784;-55
2022/03/05 07:22:44;;;;;;;11.48;10.27;;;;;;;8.39;69.85;101253.66;5033825;27;103867;-55
2022/03/05 07:25:12;;;;;;;13.00;10.75;;;;;;;8.38;70.03;101260.16;5032871;27;102487;-55
2022/03/05 07:27:38;;;;;;;14.45;11.35;;;;;;;8.39;69.74;101255.53;5046344;27;101986;-55
2022/03/05 07:30:08;;;;;;;12.52;11.10;;;;;;;8.39;70.05;101267.22;5034753;27;102721;-55
2022/03/05 07:32:35;;;;;;;12.43;10.63;;;;;;;8.39;69.96;101267.22;5034069;27;103905;-55
2022/03/05 07:35:02;;;;;;;12.13;10.75;;;;;;;8.39;69.68;101266.38;5034103;27;102423;-55
2022/03/05 07:37:28;;;;;;;12.77;10.55;;;;;;;8.39;70.53;101269.09;5033279;27;102705;-55
2022/03/05 07:39:56;;;;;;;11.93;10.32;;;;;;;8.39;70.43;101271.81;5026452;27;102507;-55
2022/03/05 07:42:23;;;;;;;12.15;10.73;;;;;;;8.39;70.45;101266.38;5033842;27;103987;-55
2022/03/05 07:44:50;;;;;;;13.20;10.70;;;;;;;8.39;69.84;101277.25;5034241;27;101917;-55
2022/03/05 07:47:16;;;;;;;13.35;10.45;;;;;;;8.39;69.62;101267.22;5036170;27;102702;-55
2022/03/05 07:49:43;;;;;;;12.73;11.20;;;;;;;8.38;70.50;101265.56;5025518;27;102633;-55
2022/03/05 07:52:10;;;;;;;13.90;10.48;;;;;;;8.39;70.28;101269.91;5020694;27;103939;-55
2022/03/05 07:54:36;;;;;;;12.82;10.65;;;;;;;8.40;70.60;101268.88;5014781;28;102034;-55
2022/03/05 07:57:04;;;;;;;13.73;10.85;;;;;;;8.40;70.22;101268.88;5030132;28;102204;-55
2022/03/05 07:59:31;;;;;;;14.98;11.57;;;;;;;8.39;70.38;101272.63;5029297;28;102452;-55
2022/03/05 08:01:57;;;;;;;14.52;10.88;;;;;;;8.38;69.59;101260.16;5027568;28;104014;-55
2022/03/05 08:04:24;;;;;;;11.93;10.73;;;;;;;8.39;70.59;101269.09;5024528;27;102556;-55
2022/03/05 08:06:50;;;;;;;12.30;10.90;;;;;;;8.39;69.65;101269.91;5026341;28;102438;-55
2022/03/05 08:09:17;;;;;;;13.60;10.82;;;;;;;8.39;70.51;101269.91;5022099;27;102549;-55
2022/03/05 08:12:06;;;;;;;13.15;10.05;;;;;;;8.40;70.32;101270.75;5021962;27;105144;-55
2022/03/05 08:14:33;;;;;;;12.13;10.82;;;;;;;8.39;70.25;101272.63;5038585;27;102032;-55
2022/03/05 08:17:00;;;;;;;12.38;10.95;;;;;;;8.39;69.55;101271.81;5045114;27;102332;-55
2022/03/05 08:19:26;;;;;;;13.35;11.70;;;;;;;8.38;70.13;101276.41;5048898;27;102319;-55
2022/03/05 08:21:53;;;;;;;14.32;11.98;;;;;;;8.40;69.53;101279.72;5037486;27;104033;-55
2022/03/05 08:24:21;;;;;;;15.05;12.23;;;;;;;8.40;70.45;101287.00;5034148;27;102459;-55
2022/03/05 08:26:47;;;;;;;15.20;12.45;;;;;;;8.39;69.77;101283.47;5036668;27;102561;-55
2022/03/05 08:29:15;;;;;;;16.95;12.25;;;;;;;8.39;69.69;101278.06;5054284;27;102493;-55
2022/03/05 08:31:42;;;;;;;14.57;12.27;;;;;;;8.39;69.66;101282.66;5034197;27;103907;-55
2022/03/05 08:34:08;;;;;;;15.77;12.50;;;;;;;8.39;70.47;101282.66;5033586;28;101762;-55
2022/03/05 08:36:35;;;;;;;15.57;12.20;;;;;;;8.39;70.50;101286.19;5033369;27;102287;-55
2022/03/05 08:39:02;;;;;;;17.15;12.77;;;;;;;8.39;70.62;101286.19;5035615;27;102247;-55
2022/03/05 08:41:29;;;;;;;13.98;12.45;;;;;;;8.40;70.20;101284.31;5048793;27;103930;-55
2022/03/05 08:43:55;;;;;;;16.20;12.63;;;;;;;8.39;70.40;101291.63;5035100;27;102967;-55
2022/03/05 08:46:24;;;;;;;15.27;12.27;;;;;;;8.39;70.64;101283.47;5032581;27;102355;-55
2022/03/05 08:48:50;;;;;;;16.00;13.35;;;;;;;8.39;70.60;101286.19;5033848;27;102185;-55
2022/03/05 08:51:17;;;;;;;17.00;12.77;;;;;;;8.39;69.86;101288.91;5032235;27;103669;-55
2022/03/05 08:53:43;;;;;;;15.40;12.23;;;;;;;8.39;70.36;101294.34;5031842;27;104828;-55
2022/03/05 08:56:10;;;;;;;16.58;12.30;;;;;;;8.39;69.63;101299.75;5031941;27;102312;-55
2022/03/05 08:58:36;;;;;;;15.98;13.40;;;;;;;8.39;70.27;101294.34;5033706;27;102147;-55
2022/03/05 09:01:03;;;;;;;14.98;12.70;;;;;;;8.40;70.64;101295.16;5032659;27;104167;-55
2022/03/05 09:03:31;;;;;;;15.32;12.70;;;;;;;8.39;70.19;101294.34;5040231;27;102593;-55
2022/03/05 09:05:58;;;;;;;15.38;13.13;;;;;;;8.40;70.61;101306.84;5021498;27;102187;-55
2022/03/05 09:08:24;;;;;;;17.15;12.77;;;;;;;8.40;70.06;101301.41;5023839;27;102777;-55
2022/03/05 09:10:56;;;;;;;14.40;12.40;;;;;;;8.39;69.67;101310.59;5030554;27;104003;-55
2022/03/05 09:13:22;;;;;;;17.65;13.23;;;;;;;8.39;70.17;101320.63;5013875;27;101974;-55
2022/03/05 09:15:49;;;;;;;15.55;13.20;;;;;;;8.40;70.08;101311.41;5024728;27;102135;-55
2022/03/05 09:18:15;;;;;;;14.85;12.98;;;;;;;8.40;69.89;101317.69;5033574;28;102206;-55
2022/03/05 09:20:47;;;;;;;17.38;13.32;;;;;;;8.40;69.74;101328.53;5028556;27;104118;-55
2022/03/05 09:23:14;;;;;;;15.73;13.45;;;;;;;8.40;70.24;101320.41;5029113;27;102271;-55
2022/03/05 09:25:41;;;;;;;16.40;12.95;;;;;;;8.40;69.69;101323.13;5031301;27;102554;-55
2022/03/05 09:28:07;;;;;;;15.40;12.70;;;;;;;8.39;70.55;101324.16;5030251;27;102284;-55
2022/03/05 09:30:34;;;;;;;16.77;12.88;;;;;;;8.39;70.56;101324.16;5023404;27;103961;-55
2022/03/05 09:33:01;;;;;;;15.88;13.02;;;;;;;8.40;70.65;101330.41;5020263;27;102542;-56
2022/03/05 09:35:27;;;;;;;16.00;13.18;;;;;;;8.39;69.94;101332.31;5027750;27;103535;-55
2022/03/05 09:37:55;;;;;;;17.95;13.15;;;;;;;8.39;69.71;101326.88;5029562;27;102710;-59
2022/03/05 09:40:34;;;;;;;19.33;12.32;;;;;;;8.37;69.42;101339.88;5014840;27;103916;-55
2022/03/05 09:43:02;;;;;;;16.35;13.57;;;;;;;8.36;70.25;101335.47;5030020;27;102054;-54
2022/03/05 09:45:28;;;;;;;17.15;13.63;;;;;;;8.37;69.96;101339.03;5031870;27;102057;-55
2022/03/05 09:47:56;;;;;;;16.67;13.77;;;;;;;8.36;69.83;101338.16;5032842;28;102228;-55
2022/03/05 09:50:26;;;;;;;17.10;14.20;;;;;;;8.36;70.00;101342.78;5027754;27;103910;-55
2022/03/05 09:52:52;;;;;;;;;;;;;;;8.35;69.93;101341.97;5012922;28;102269;-55
2022/03/05 09:55:20;;;;;;;18.25;13.70;;;;;;;8.37;70.16;101341.72;5019141;27;102452;-55
2022/03/05 09:57:48;;;;;;;17.58;14.43;;;;;;;8.35;70.05;101341.97;5029340;27;102487;-55
2022/03/05 10:00:15;;;;;;;17.00;13.77;;;;;;;8.35;69.31;101344.66;5024234;27;103884;-55
2022/03/05 10:02:48;;;;;;;17.50;14.02;;;;;;;8.34;69.80;101343.03;5036508;27;102007;-56
2022/03/05 10:05:17;;;;;;;17.67;13.80;;;;;;;8.34;69.65;101351.16;5042337;27;102064;-55
2022/03/05 10:08:08;;;;;;;21.60;14.18;;;;;;;8.34;69.69;101345.75;5033939;27;102770;-55
2022/03/05 10:10:45;;;;;;;19.05;14.55;;;;;;;8.34;69.59;101351.16;5040970;27;104072;-55
2022/03/05 10:13:33;;;;;;;19.52;14.35;;;;;;;8.35;69.45;101347.38;5035244;27;102044;-55
2022/03/05 10:16:01;;;;;;;17.05;13.98;;;;;;;8.36;69.86;101340.88;5035208;27;101959;-55
2022/03/05 10:18:39;;;;;;;17.90;14.37;;;;;;;8.34;69.66;101340.31;5026751;27;102672;-55
2022/03/05 10:21:28;;;;;;;19.10;14.82;;;;;;;8.35;70.05;101331.09;5028454;27;104944;-55
2022/03/05 10:24:04;;;;;;;16.65;13.90;;;;;;;8.35;69.53;101336.53;5030103;27;102444;-55
2022/03/05 10:26:49;;;;;;;19.15;14.48;;;;;;;8.34;69.41;101329.47;5024052;27;102215;-55
2022/03/05 10:29:21;;;;;;;16.23;13.77;;;;;;;8.36;70.00;101337.34;5029325;27;103769;-55
2022/03/05 10:31:58;;;;;;;16.13;13.07;;;;;;;8.35;70.16;101331.09;5033479;27;104053;-55
2022/03/05 10:34:25;;;;;;;16.75;13.70;;;;;;;8.35;70.17;101328.41;5035915;27;102637;-55
2022/03/05 10:36:59;;;;;;;15.65;13.32;;;;;;;8.35;69.76;101322.16;5040976;27;101982;-54
2022/03/05 10:39:26;;;;;;;17.55;14.27;;;;;;;8.34;69.56;101324.03;5035176;27;102115;-55
2022/03/05 10:41:55;;;;;;;18.92;14.23;;;;;;;8.35;69.82;101322.97;5034322;27;103761;-55
2022/03/05 10:44:22;;;;;;;18.40;14.80;;;;;;;8.35;69.04;101314.84;5035285;28;102480;-54
2022/03/05 10:46:56;;;;;;;16.35;13.82;;;;;;;8.34;69.63;101318.63;5028832;27;102847;-55
2022/03/05 10:49:24;;;;;;;16.48;13.73;;;;;;;8.35;69.68;101320.25;5033506;27;102801;-55
2022/03/05 10:51:52;;;;;;;;;;;;;;;8.34;70.03;101302.34;5024594;27;103494;-55
2022/03/05 10:54:27;;;;;;;17.00;13.00;;;;;;;8.35;69.86;101309.41;5038661;27;102556;-55
2022/03/05 10:56:57;;;;;;;16.88;13.57;;;;;;;8.35;69.50;101309.41;5039998;27;101840;-55
2022/03/05 10:59:25;;;;;;;15.82;13.27;;;;;;;8.34;70.21;101305.06;5042448;27;102551;-55
2022/03/05 11:01:54;;;;;;;16.83;13.88;;;;;;;8.35;69.08;101300.47;5030829;27;103954;-55
2022/03/05 11:04:21;;;;;;;16.45;13.45;;;;;;;8.36;70.27;101302.91;5032243;27;102651;-55
2022/03/05 11:06:53;;;;;;;15.43;12.73;;;;;;;8.35;69.28;101298.56;5033955;27;101994;-55
2022/03/05 11:09:24;;;;;;;15.70;13.68;;;;;;;8.35;69.89;101301.28;5017616;27;102150;-55
2022/03/05 11:11:53;;;;;;;16.35;13.00;;;;;;;8.36;70.15;101299.38;5016777;27;103883;-55
2022/03/05 11:14:22;;;;;;;;;;;;;;;8.35;69.99;101293.13;5026621;27;102535;-55
2022/03/05 11:17:06;;;;;;;15.07;12.57;;;;;;;8.36;70.18;101302.91;5030916;27;102209;-55
2022/03/05 11:19:36;;;;;;;15.00;13.10;;;;;;;8.36;69.71;101305.63;5054191;27;102835;-55
2022/03/05 11:22:03;;;;;;;14.60;13.07;;;;;;;8.36;69.63;101302.91;5049146;27;103941;-55
2022/03/05 11:24:31;;;;;;;14.30;12.77;;;;;;;8.36;69.61;101311.06;5047521;27;102406;-55